KDEC/DEC METAR and TAF weather

Enter ICAO airport designator
Station Type Date Time Source
KDEC METAR 2018/07/21 03:54 UTC NOAA

KDEC 210354Z AUTO 28012KT 10SM CLR 22/19 A2979 RMK AO2 SLP083 T02220189


Station Type Date Time Source
KDEC Decoded METAR 2018/07/21 03:54 UTC NOAA

DECATUR AIRPORT, IL, United States (KDEC) 39-50N 88-52W 207M
Jul 20, 2018 - 11:54 PM EDT / 2018.07.21 0354 UTC
Wind: from the W (280 degrees) at 14 MPH (12 KT):0
Visibility: 10 mile(s):0
Sky conditions: clear
Temperature: 72.0 F (22.2 C)
Dew Point: 66.0 F (18.9 C)
Relative Humidity: 81%
Pressure (altimeter): 29.79 in. Hg (1008 hPa)
ob: KDEC 210354Z AUTO 28012KT 10SM CLR 22/19 A2979 RMK AO2 SLP083 T02220189
cycle: 4

Station Type Date Time Source
KDEC TAF 2018/07/20 21:58 UTC NOAA

TAF
AMD KDEC 202057Z 2021/2118 29014G22KT P6SM VCSH SCT035 BKN045
FM210100 28010KT P6SM BKN050
FM211000 29009KT P6SM BKN025
FM211500 31012G18KT P6SM BKN015


Example: see airport list